createdAt,value
2022-08-28T00:00:44.328Z,18.25
2022-08-28T00:01:44.329Z,18.28
2022-08-28T00:02:44.360Z,18.23
2022-08-28T00:03:44.314Z,18.26
2022-08-28T00:04:44.332Z,18.33
2022-08-28T00:05:44.278Z,18.20
2022-08-28T00:06:44.277Z,18.19
2022-08-28T00:07:47.607Z,18.23
2022-08-28T00:08:44.283Z,18.31
2022-08-28T00:09:44.257Z,18.28
2022-08-28T00:10:44.257Z,18.23
2022-08-28T00:11:44.239Z,18.22
2022-08-28T00:12:44.236Z,18.16
2022-08-28T00:13:44.241Z,18.18
2022-08-28T00:14:44.219Z,18.11
2022-08-28T00:15:44.254Z,18.15
2022-08-28T00:16:44.194Z,18.19
2022-08-28T00:17:44.192Z,18.18
2022-08-28T00:18:44.180Z,18.22
2022-08-28T00:19:44.200Z,18.31
2022-08-28T00:20:44.163Z,18.29
2022-08-28T00:21:44.154Z,18.20
2022-08-28T00:22:44.147Z,18.20
2022-08-28T00:23:44.140Z,18.15
2022-08-28T00:24:44.131Z,18.28
2022-08-28T00:25:44.149Z,18.26
2022-08-28T00:26:44.116Z,18.19
2022-08-28T00:27:44.104Z,18.22
2022-08-28T00:28:44.096Z,18.33
2022-08-28T00:29:44.102Z,18.16
2022-08-28T00:30:44.122Z,18.22
2022-08-28T00:31:44.152Z,18.35
2022-08-28T00:32:44.063Z,18.19
2022-08-28T00:33:44.069Z,18.33
2022-08-28T00:34:44.050Z,18.15
2022-08-28T00:35:44.049Z,18.16
2022-08-28T00:36:44.054Z,18.19
2022-08-28T00:37:44.022Z,18.10
2022-08-28T00:38:44.033Z,18.08
2022-08-28T00:39:44.026Z,18.04
2022-08-28T00:40:44.192Z,18.00
2022-08-28T00:41:43.991Z,18.08
2022-08-28T00:42:43.989Z,18.05
2022-08-28T00:43:43.980Z,18.22
2022-08-28T00:44:43.987Z,18.11
2022-08-28T00:45:43.961Z,18.08
2022-08-28T00:46:44.012Z,18.08
2022-08-28T00:47:43.938Z,18.11
2022-08-28T00:48:43.958Z,18.07
2022-08-28T00:49:43.925Z,18.13
2022-08-28T00:50:43.962Z,18.03
2022-08-28T00:51:43.919Z,18.08
2022-08-28T00:52:43.903Z,18.13
2022-08-28T00:53:43.899Z,18.05
2022-08-28T00:54:53.508Z,18.08
2022-08-28T00:55:44.901Z,18.05
2022-08-28T00:56:43.874Z,18.05
2022-08-28T00:57:43.864Z,18.01
2022-08-28T00:58:43.867Z,18.07
2022-08-28T00:59:43.846Z,18.22
2022-08-28T01:00:43.837Z,18.15
2022-08-28T01:01:43.888Z,18.11
2022-08-28T01:02:43.897Z,18.19
2022-08-28T01:03:43.835Z,18.00
2022-08-28T01:04:43.814Z,18.10
2022-08-28T01:05:43.809Z,18.08
2022-08-28T01:06:43.796Z,18.19
2022-08-28T01:07:43.802Z,18.08
2022-08-28T01:08:43.798Z,18.08
2022-08-28T01:09:44.789Z,18.11
2022-08-28T01:10:43.755Z,18.08
2022-08-28T01:11:43.764Z,18.10
2022-08-28T01:12:43.742Z,18.03
2022-08-28T01:13:43.725Z,18.11
2022-08-28T01:14:43.719Z,18.10
2022-08-28T01:15:43.776Z,18.10
2022-08-28T01:16:43.703Z,18.10
2022-08-28T01:17:43.722Z,18.10
2022-08-28T01:18:43.689Z,18.13
2022-08-28T01:19:43.677Z,18.03
2022-08-28T01:20:43.677Z,18.11
2022-08-28T01:21:43.683Z,18.03
2022-08-28T01:22:43.655Z,18.01
2022-08-28T01:23:43.644Z,18.04
2022-08-28T01:24:43.639Z,18.05
2022-08-28T01:25:43.626Z,18.00
2022-08-28T01:26:43.645Z,17.95
2022-08-28T01:27:43.610Z,17.95
2022-08-28T01:28:43.623Z,17.85
2022-08-28T01:29:45.199Z,17.92
2022-08-28T01:30:43.633Z,18.00
2022-08-28T01:31:43.578Z,17.92
2022-08-28T01:32:43.569Z,17.90
2022-08-28T01:33:43.575Z,17.92
2022-08-28T01:34:43.556Z,17.86
2022-08-28T01:35:43.542Z,17.89
2022-08-28T01:36:43.539Z,17.82
2022-08-28T01:37:50.532Z,18.00
2022-08-28T01:38:43.537Z,17.94
2022-08-28T01:39:43.505Z,17.97
2022-08-28T01:40:43.534Z,18.01
2022-08-28T01:41:43.495Z,17.87
2022-08-28T01:42:43.485Z,17.85
2022-08-28T01:43:43.501Z,17.87
2022-08-28T01:44:43.470Z,17.86
2022-08-28T01:45:43.458Z,17.89
2022-08-28T01:46:43.529Z,17.90
2022-08-28T01:47:43.454Z,17.87
2022-08-28T01:48:43.466Z,17.82
2022-08-28T01:49:43.431Z,17.85
2022-08-28T01:50:43.419Z,17.89
2022-08-28T01:51:43.412Z,17.94
2022-08-28T01:52:43.424Z,18.01
2022-08-28T01:53:45.348Z,17.89
2022-08-28T01:54:43.391Z,17.89
2022-08-28T01:55:43.384Z,17.90
2022-08-28T01:56:43.375Z,17.87
2022-08-28T01:57:43.373Z,17.94
2022-08-28T01:58:43.415Z,17.90
2022-08-28T01:59:43.353Z,17.94
2022-08-28T02:00:43.342Z,17.87
2022-08-28T02:01:43.387Z,17.87
2022-08-28T02:02:43.336Z,17.90
2022-08-28T02:03:43.441Z,17.95
2022-08-28T02:04:46.265Z,18.00
2022-08-28T02:05:43.307Z,17.95
2022-08-28T02:06:43.307Z,17.83
2022-08-28T02:07:43.296Z,17.90
2022-08-28T02:08:43.309Z,17.94
2022-08-28T02:09:43.271Z,17.94
2022-08-28T02:10:43.299Z,17.90
2022-08-28T02:11:46.479Z,17.86
2022-08-28T02:12:43.255Z,17.86
2022-08-28T02:13:43.246Z,17.85
2022-08-28T02:14:43.253Z,17.86
2022-08-28T02:15:43.354Z,17.82
2022-08-28T02:16:43.221Z,17.83
2022-08-28T02:17:43.213Z,17.79
2022-08-28T02:18:43.214Z,17.78
2022-08-28T02:19:43.220Z,17.87
2022-08-28T02:20:43.189Z,17.83
2022-08-28T02:21:43.170Z,17.95
2022-08-28T02:22:43.167Z,17.92
2022-08-28T02:23:43.163Z,17.92
2022-08-28T02:24:43.154Z,17.87
2022-08-28T02:25:43.164Z,17.78
2022-08-28T02:26:43.138Z,17.76
2022-08-28T02:27:43.129Z,17.80
2022-08-28T02:28:43.138Z,17.80
2022-08-28T02:29:43.100Z,17.79
2022-08-28T02:30:43.143Z,17.72
2022-08-28T02:31:43.097Z,17.82
2022-08-28T02:32:43.094Z,17.85
2022-08-28T02:33:43.071Z,17.83
2022-08-28T02:34:43.074Z,17.85
2022-08-28T02:35:43.056Z,17.85
2022-08-28T02:36:43.078Z,17.92
2022-08-28T02:37:43.050Z,17.86
2022-08-28T02:38:43.037Z,17.83
2022-08-28T02:39:43.021Z,17.94
2022-08-28T02:40:43.021Z,17.86
2022-08-28T02:41:43.009Z,17.89
2022-08-28T02:42:43.025Z,17.87
2022-08-28T02:43:43.020Z,17.92
2022-08-28T02:44:42.985Z,17.79
2022-08-28T02:45:42.991Z,17.76
2022-08-28T02:46:42.967Z,17.85
2022-08-28T02:47:42.984Z,17.85
2022-08-28T02:48:42.949Z,17.85
2022-08-28T02:49:42.941Z,17.83
2022-08-28T02:50:42.944Z,17.80
2022-08-28T02:51:42.918Z,17.79
2022-08-28T02:52:42.919Z,17.76
2022-08-28T02:53:42.928Z,17.86
2022-08-28T02:54:42.903Z,17.83
2022-08-28T02:55:42.897Z,17.86
2022-08-28T02:56:42.893Z,17.76
2022-08-28T02:57:42.880Z,17.89
2022-08-28T02:58:42.893Z,17.79
2022-08-28T02:59:42.894Z,17.85
2022-08-28T03:00:42.855Z,17.74
2022-08-28T03:01:42.913Z,17.72
2022-08-28T03:02:42.877Z,17.71
2022-08-28T03:03:42.843Z,17.76
2022-08-28T03:04:42.824Z,17.65
2022-08-28T03:05:42.834Z,17.78
2022-08-28T03:06:42.821Z,17.80
2022-08-28T03:07:42.817Z,17.67
2022-08-28T03:08:42.794Z,17.76
2022-08-28T03:09:42.777Z,17.74
2022-08-28T03:10:42.801Z,17.72
2022-08-28T03:11:42.756Z,17.59
2022-08-28T03:12:42.762Z,17.63
2022-08-28T03:13:42.744Z,17.71
2022-08-28T03:14:42.740Z,17.78
2022-08-28T03:15:42.724Z,17.78
2022-08-28T03:16:42.802Z,17.68
2022-08-28T03:17:42.741Z,17.76
2022-08-28T03:18:42.724Z,17.68
2022-08-28T03:19:42.702Z,17.72
2022-08-28T03:20:42.701Z,17.79
2022-08-28T03:21:42.683Z,17.80
2022-08-28T03:22:42.670Z,17.71
2022-08-28T03:23:42.688Z,17.64
2022-08-28T03:24:42.657Z,17.67
2022-08-28T03:25:42.649Z,17.67
2022-08-28T03:26:42.647Z,17.79
2022-08-28T03:27:42.657Z,17.64
2022-08-28T03:28:42.633Z,17.78
2022-08-28T03:29:42.617Z,17.76
2022-08-28T03:30:42.668Z,17.74
2022-08-28T03:31:42.606Z,17.65
2022-08-28T03:32:42.632Z,17.80
2022-08-28T03:33:43.018Z,17.78
2022-08-28T03:34:42.592Z,17.72
2022-08-28T03:35:42.582Z,17.72
2022-08-28T03:36:42.556Z,17.80
2022-08-28T03:37:42.552Z,17.74
2022-08-28T03:38:42.545Z,17.71
2022-08-28T03:39:42.568Z,17.79
2022-08-28T03:40:42.555Z,17.79
2022-08-28T03:41:42.518Z,17.71
2022-08-28T03:42:42.529Z,17.71
2022-08-28T03:43:42.554Z,17.57
2022-08-28T03:44:42.492Z,17.57
2022-08-28T03:45:42.555Z,17.56
2022-08-28T03:46:42.491Z,17.60
2022-08-28T03:47:42.479Z,17.63
2022-08-28T03:48:43.507Z,17.60
2022-08-28T03:49:42.490Z,17.57
2022-08-28T03:50:42.456Z,17.56
2022-08-28T03:51:42.445Z,17.45
2022-08-28T03:52:42.440Z,17.59
2022-08-28T03:53:42.448Z,17.57
2022-08-28T03:54:42.428Z,17.63
2022-08-28T03:55:42.412Z,17.59
2022-08-28T03:56:42.425Z,17.52
2022-08-28T03:57:42.392Z,17.60
2022-08-28T03:58:42.408Z,17.49
2022-08-28T03:59:42.382Z,17.51
2022-08-28T04:00:42.367Z,17.45
2022-08-28T04:01:42.435Z,17.57
2022-08-28T04:02:42.354Z,17.48
2022-08-28T04:03:42.430Z,17.51
2022-08-28T04:04:42.340Z,17.45
2022-08-28T04:05:42.351Z,17.33
2022-08-28T04:06:42.319Z,17.45
2022-08-28T04:07:42.310Z,17.39
2022-08-28T04:08:42.313Z,17.44
2022-08-28T04:09:42.324Z,17.33
2022-08-28T04:10:42.289Z,17.31
2022-08-28T04:11:42.278Z,17.19
2022-08-28T04:12:42.265Z,17.23
2022-08-28T04:13:42.283Z,17.19
2022-08-28T04:14:42.261Z,17.23
2022-08-28T04:15:42.258Z,17.14
2022-08-28T04:16:42.283Z,17.08
2022-08-28T04:17:42.227Z,17.09
2022-08-28T04:18:42.229Z,17.08
2022-08-28T04:19:42.234Z,16.99
2022-08-28T04:20:42.200Z,17.12
2022-08-28T04:21:42.189Z,17.04
2022-08-28T04:22:42.204Z,17.01
2022-08-28T04:23:42.172Z,17.02
2022-08-28T04:24:42.170Z,16.99
2022-08-28T04:25:42.177Z,16.96
2022-08-28T04:26:42.150Z,17.12
2022-08-28T04:27:42.149Z,16.94
2022-08-28T04:28:42.138Z,16.91
2022-08-28T04:29:42.122Z,16.93
2022-08-28T04:30:42.116Z,17.01
2022-08-28T04:31:42.150Z,17.01
2022-08-28T04:32:42.106Z,17.02
2022-08-28T04:33:42.081Z,16.94
2022-08-28T04:34:42.077Z,16.89
2022-08-28T04:35:42.079Z,16.99
2022-08-28T04:36:42.074Z,16.99
2022-08-28T04:37:42.049Z,16.94
2022-08-28T04:38:44.113Z,17.01
2022-08-28T04:39:42.054Z,16.87
2022-08-28T04:40:42.053Z,16.87
2022-08-28T04:41:42.022Z,16.81
2022-08-28T04:42:42.020Z,16.79
2022-08-28T04:43:42.002Z,16.74
2022-08-28T04:44:42.017Z,16.84
2022-08-28T04:45:42.027Z,16.74
2022-08-28T04:46:41.977Z,16.72
2022-08-28T04:47:41.978Z,16.78
2022-08-28T04:48:41.966Z,16.66
2022-08-28T04:49:41.946Z,16.72
2022-08-28T04:50:41.970Z,16.74
2022-08-28T04:51:42.332Z,16.65
2022-08-28T04:52:41.921Z,16.65
2022-08-28T04:53:41.910Z,16.65
2022-08-28T04:54:41.909Z,16.66
2022-08-28T04:55:53.589Z,16.71
2022-08-28T04:56:42.890Z,16.74
2022-08-28T04:57:41.882Z,16.74
2022-08-28T04:58:41.876Z,16.81
2022-08-28T04:59:41.849Z,16.84
2022-08-28T05:00:41.876Z,16.86
2022-08-28T05:01:41.858Z,17.01
2022-08-28T05:02:41.894Z,16.89
2022-08-28T05:03:41.820Z,16.94
2022-08-28T05:04:41.814Z,16.90
2022-08-28T05:05:41.814Z,16.87
2022-08-28T05:06:41.820Z,17.02
2022-08-28T05:07:41.791Z,16.93
2022-08-28T05:08:41.787Z,16.87
2022-08-28T05:09:41.768Z,16.84
2022-08-28T05:10:41.787Z,16.89
2022-08-28T05:11:41.751Z,16.93
2022-08-28T05:12:41.752Z,16.97
2022-08-28T05:13:41.759Z,16.97
2022-08-28T05:14:41.737Z,17.05
2022-08-28T05:15:41.725Z,17.05
2022-08-28T05:16:41.760Z,17.06
2022-08-28T05:17:41.697Z,17.04
2022-08-28T05:18:41.695Z,17.01
2022-08-28T05:19:41.689Z,17.09
2022-08-28T05:20:41.669Z,17.08
2022-08-28T05:21:41.658Z,17.08
2022-08-28T05:22:41.678Z,17.19
2022-08-28T05:23:41.651Z,17.22
2022-08-28T05:24:41.654Z,17.15
2022-08-28T05:25:41.640Z,17.22
2022-08-28T05:26:41.627Z,17.24
2022-08-28T05:27:41.636Z,17.16
2022-08-28T05:28:41.614Z,17.15
2022-08-28T05:29:41.602Z,17.12
2022-08-28T05:30:41.627Z,17.14
2022-08-28T05:31:41.668Z,17.11
2022-08-28T05:32:41.579Z,17.26
2022-08-28T05:33:41.586Z,17.15
2022-08-28T05:34:41.561Z,17.20
2022-08-28T05:35:41.559Z,17.31
2022-08-28T05:36:41.549Z,17.26
2022-08-28T05:37:41.582Z,17.24
2022-08-28T05:38:41.535Z,17.23
2022-08-28T05:39:41.520Z,17.27
2022-08-28T05:40:41.529Z,17.34
2022-08-28T05:41:41.519Z,17.33
2022-08-28T05:42:41.499Z,17.48
2022-08-28T05:43:41.480Z,17.51
2022-08-28T05:44:41.503Z,17.57
2022-08-28T05:45:41.496Z,17.64
2022-08-28T05:46:41.496Z,17.60
2022-08-28T05:47:41.448Z,17.71
2022-08-28T05:48:41.442Z,17.72
2022-08-28T05:49:41.433Z,17.89
2022-08-28T05:50:47.215Z,17.79
2022-08-28T05:51:41.422Z,17.97
2022-08-28T05:52:41.440Z,18.25
2022-08-28T05:53:41.401Z,18.47
2022-08-28T05:54:41.398Z,18.83
2022-08-28T05:55:41.382Z,19.00
2022-08-28T05:56:41.391Z,19.09
2022-08-28T05:57:41.365Z,18.84
2022-08-28T05:58:41.381Z,18.80
2022-08-28T05:59:41.349Z,18.77
2022-08-28T06:00:41.362Z,18.73
2022-08-28T06:01:41.463Z,18.98
2022-08-28T06:02:41.331Z,18.90
2022-08-28T06:03:41.392Z,18.99
2022-08-28T06:04:41.347Z,19.15
2022-08-28T06:05:41.299Z,19.39
2022-08-28T06:06:41.314Z,19.76
2022-08-28T06:07:41.280Z,19.71
2022-08-28T06:08:56.360Z,19.73
2022-08-28T06:09:42.291Z,20.29
2022-08-28T06:10:41.263Z,20.92
2022-08-28T06:11:44.811Z,21.42
2022-08-28T06:12:42.256Z,22.13
2022-08-28T06:13:41.241Z,22.00
2022-08-28T06:14:41.248Z,22.41
2022-08-28T06:15:41.220Z,22.81
2022-08-28T06:16:41.227Z,23.20
2022-08-28T06:17:41.245Z,23.43
2022-08-28T06:18:41.212Z,23.65
2022-08-28T06:19:41.801Z,23.92
2022-08-28T06:20:41.194Z,23.86
2022-08-28T06:21:41.177Z,24.11
2022-08-28T06:22:41.177Z,24.17
2022-08-28T06:23:41.193Z,23.87
2022-08-28T06:24:41.159Z,23.93
2022-08-28T06:25:41.167Z,24.32
2022-08-28T06:26:41.145Z,24.48
2022-08-28T06:27:41.132Z,24.74
2022-08-28T06:28:41.127Z,24.55
2022-08-28T06:29:41.142Z,24.39
2022-08-28T06:30:52.748Z,24.39
2022-08-28T06:31:42.173Z,24.65
2022-08-28T06:32:41.112Z,24.70
2022-08-28T06:33:41.085Z,24.85
2022-08-28T06:34:41.079Z,24.69
2022-08-28T06:35:41.073Z,24.98
2022-08-28T06:36:41.069Z,25.07
2022-08-28T06:37:41.077Z,24.68
2022-08-28T06:38:41.052Z,24.70
2022-08-28T06:39:41.042Z,23.71
2022-08-28T06:40:41.060Z,23.62
2022-08-28T06:41:41.103Z,23.81
2022-08-28T06:42:41.022Z,23.71
2022-08-28T06:43:41.027Z,23.87
2022-08-28T06:44:41.024Z,24.58
2022-08-28T06:45:41.077Z,24.65
2022-08-28T06:46:41.004Z,24.55
2022-08-28T06:47:41.009Z,24.29
2022-08-28T06:48:40.983Z,24.38
2022-08-28T06:49:40.974Z,24.10
2022-08-28T06:50:40.970Z,23.81
2022-08-28T06:51:40.958Z,23.68
2022-08-28T06:52:40.945Z,23.63
2022-08-28T06:53:40.963Z,23.77
2022-08-28T06:54:40.965Z,23.39
2022-08-28T06:55:41.934Z,22.66
2022-08-28T06:56:40.921Z,22.45
2022-08-28T06:57:40.908Z,22.07
2022-08-28T06:58:40.906Z,21.72
2022-08-28T06:59:40.918Z,21.64
2022-08-28T07:00:40.920Z,21.57
2022-08-28T07:01:40.957Z,21.75
2022-08-28T07:02:40.959Z,22.43
2022-08-28T07:03:42.545Z,22.90
2022-08-28T07:04:40.859Z,22.60
2022-08-28T07:05:40.854Z,21.77
2022-08-28T07:06:40.899Z,21.99
2022-08-28T07:07:40.841Z,21.91
2022-08-28T07:08:40.846Z,21.93
2022-08-28T07:09:40.830Z,21.89
2022-08-28T07:10:40.826Z,22.35
2022-08-28T07:11:40.812Z,23.13
2022-08-28T07:12:40.825Z,23.46
2022-08-28T07:13:40.798Z,22.84
2022-08-28T07:14:40.788Z,22.99
2022-08-28T07:15:41.905Z,23.24
2022-08-28T07:16:40.805Z,23.86
2022-08-28T07:17:40.766Z,24.60
2022-08-28T07:18:40.759Z,24.68
2022-08-28T07:19:40.754Z,25.01
2022-08-28T07:20:40.746Z,25.06
2022-08-28T07:21:40.748Z,24.91
2022-08-28T07:22:40.755Z,24.54
2022-08-28T07:23:40.719Z,23.80
2022-08-28T07:24:40.722Z,22.98
2022-08-28T07:25:40.706Z,22.51
2022-08-28T07:26:40.702Z,22.48
2022-08-28T07:27:40.718Z,23.47
2022-08-28T07:28:40.683Z,23.00
2022-08-28T07:29:40.684Z,22.90
2022-08-28T07:30:40.751Z,22.41
2022-08-28T07:31:40.693Z,21.96
2022-08-28T07:32:40.667Z,21.58
2022-08-28T07:33:40.664Z,21.24
2022-08-28T07:34:40.657Z,21.18
2022-08-28T07:35:40.631Z,21.07
2022-08-28T07:36:40.633Z,20.90
2022-08-28T07:37:40.861Z,20.97
2022-08-28T07:38:40.622Z,20.96
2022-08-28T07:39:40.622Z,20.87
2022-08-28T07:40:40.606Z,20.82
2022-08-28T07:41:40.600Z,20.52
2022-08-28T07:42:40.579Z,20.11
2022-08-28T07:43:40.576Z,20.21
2022-08-28T07:44:40.587Z,19.95
2022-08-28T07:45:40.629Z,19.71
2022-08-28T07:46:40.570Z,19.85
2022-08-28T07:47:40.569Z,19.37
2022-08-28T07:48:40.544Z,19.39
2022-08-28T07:49:40.569Z,19.18
2022-08-28T07:50:41.429Z,19.18
2022-08-28T07:51:40.518Z,19.31
2022-08-28T07:52:40.529Z,19.16
2022-08-28T07:53:40.505Z,19.00
2022-08-28T07:54:40.533Z,19.16
2022-08-28T07:55:40.492Z,19.30
2022-08-28T07:56:40.480Z,19.45
2022-08-28T07:57:40.469Z,19.41
2022-08-28T07:58:40.483Z,19.47
2022-08-28T07:59:40.460Z,19.79
2022-08-28T08:00:40.461Z,20.74
2022-08-28T08:01:40.504Z,20.97
2022-08-28T08:02:40.464Z,21.09
2022-08-28T08:03:40.481Z,21.11
2022-08-28T08:04:40.428Z,21.12
2022-08-28T08:05:40.420Z,20.93
2022-08-28T08:06:40.410Z,20.95
2022-08-28T08:07:41.872Z,21.39
2022-08-28T08:08:40.425Z,21.37
2022-08-28T08:09:40.395Z,21.54
2022-08-28T08:10:40.388Z,21.69
2022-08-28T08:11:40.374Z,21.67
2022-08-28T08:12:40.369Z,21.69
2022-08-28T08:13:40.363Z,21.95
2022-08-28T08:14:40.371Z,22.43
2022-08-28T08:15:40.346Z,22.60
2022-08-28T08:16:40.338Z,22.66
2022-08-28T08:17:40.326Z,22.70
2022-08-28T08:18:40.326Z,23.09
2022-08-28T08:19:40.324Z,23.59
2022-08-28T08:20:40.327Z,23.66
2022-08-28T08:21:40.304Z,23.73
2022-08-28T08:22:40.293Z,23.80
2022-08-28T08:23:40.285Z,23.50
2022-08-28T08:24:40.289Z,23.54
2022-08-28T08:25:40.271Z,23.46
2022-08-28T08:26:40.279Z,22.88
2022-08-28T08:27:43.064Z,22.68
2022-08-28T08:28:40.243Z,22.84
2022-08-28T08:29:40.237Z,23.00
2022-08-28T08:30:40.227Z,23.17
2022-08-28T08:31:40.925Z,23.34
2022-08-28T08:32:40.250Z,23.48
2022-08-28T08:33:40.211Z,23.65
2022-08-28T08:34:40.211Z,23.68
2022-08-28T08:35:40.200Z,23.56
2022-08-28T08:36:40.193Z,23.61
2022-08-28T08:37:40.218Z,23.54
2022-08-28T08:38:40.175Z,23.63
2022-08-28T08:39:40.174Z,23.65
2022-08-28T08:40:40.223Z,23.34
2022-08-28T08:41:40.152Z,23.46
2022-08-28T08:42:40.151Z,23.59
2022-08-28T08:43:40.161Z,23.10
2022-08-28T08:44:40.132Z,23.00
2022-08-28T08:45:40.120Z,23.18
2022-08-28T08:46:40.157Z,23.09
2022-08-28T08:47:40.105Z,23.43
2022-08-28T08:48:40.098Z,23.65
2022-08-28T08:49:40.123Z,23.74
2022-08-28T08:50:40.087Z,23.78
2022-08-28T08:51:40.073Z,23.63
2022-08-28T08:52:40.077Z,23.73
2022-08-28T08:53:40.063Z,23.88
2022-08-28T08:54:40.069Z,23.71
2022-08-28T08:55:40.077Z,23.74
2022-08-28T08:56:40.048Z,23.63
2022-08-28T08:57:40.036Z,23.77
2022-08-28T08:58:40.056Z,23.71
2022-08-28T08:59:40.020Z,23.91
2022-08-28T09:00:40.013Z,24.02
2022-08-28T09:01:40.085Z,24.01
2022-08-28T09:02:39.999Z,23.96
2022-08-28T09:03:40.400Z,23.65
2022-08-28T09:04:40.008Z,23.76
2022-08-28T09:05:39.969Z,23.81
2022-08-28T09:06:39.978Z,23.76
2022-08-28T09:07:39.956Z,23.66
2022-08-28T09:08:39.965Z,23.84
2022-08-28T09:09:39.951Z,23.98
2022-08-28T09:10:39.975Z,24.16
2022-08-28T09:11:39.944Z,24.36
2022-08-28T09:12:39.925Z,24.24
2022-08-28T09:13:39.913Z,24.11
2022-08-28T09:14:39.956Z,23.76
2022-08-28T09:15:39.925Z,23.78
2022-08-28T09:16:39.897Z,23.73
2022-08-28T09:17:39.886Z,23.65
2022-08-28T09:18:39.892Z,23.44
2022-08-28T09:19:39.890Z,23.24
2022-08-28T09:20:39.875Z,23.10
2022-08-28T09:21:39.880Z,23.03
2022-08-28T09:22:39.864Z,23.12
2022-08-28T09:23:39.850Z,23.37
2022-08-28T09:24:39.872Z,23.36
2022-08-28T09:25:39.835Z,23.54
2022-08-28T09:26:39.835Z,23.77
2022-08-28T09:27:39.861Z,23.54
2022-08-28T09:28:39.831Z,23.36
2022-08-28T09:29:39.808Z,23.40
2022-08-28T09:30:39.843Z,23.13
2022-08-28T09:31:39.795Z,23.17
2022-08-28T09:32:39.796Z,23.58
2022-08-28T09:33:40.149Z,23.86
2022-08-28T09:34:39.778Z,24.20
2022-08-28T09:35:39.774Z,24.23
2022-08-28T09:36:39.767Z,24.18
2022-08-28T09:37:39.748Z,24.30
2022-08-28T09:38:39.753Z,24.24
2022-08-28T09:39:39.766Z,24.16
2022-08-28T09:40:39.814Z,24.23
2022-08-28T09:41:39.726Z,24.13
2022-08-28T09:42:39.712Z,24.10
2022-08-28T09:43:39.730Z,23.80
2022-08-28T09:44:39.695Z,23.91
2022-08-28T09:45:39.695Z,24.10
2022-08-28T09:46:39.716Z,24.11
2022-08-28T09:47:40.588Z,24.02
2022-08-28T09:48:40.702Z,24.18
2022-08-28T09:49:39.662Z,24.18
2022-08-28T09:50:39.655Z,24.20
2022-08-28T09:51:39.640Z,23.74
2022-08-28T09:52:39.641Z,23.58
2022-08-28T09:53:39.631Z,23.55
2022-08-28T09:54:39.646Z,23.84
2022-08-28T09:55:39.626Z,23.93
2022-08-28T09:56:39.631Z,23.80
2022-08-28T09:57:39.644Z,23.92
2022-08-28T09:58:39.605Z,24.05
2022-08-28T09:59:39.593Z,23.95
2022-08-28T10:00:39.594Z,24.02
2022-08-28T10:01:39.616Z,23.93
2022-08-28T10:02:39.587Z,23.73
2022-08-28T10:03:39.600Z,23.76
2022-08-28T10:04:39.622Z,23.86
2022-08-28T10:05:39.548Z,23.93
2022-08-28T10:06:39.540Z,23.99
2022-08-28T10:07:39.555Z,24.17
2022-08-28T10:08:39.525Z,24.30
2022-08-28T10:09:39.520Z,24.36
2022-08-28T10:10:40.530Z,24.33
2022-08-28T10:11:41.747Z,24.45
2022-08-28T10:12:39.549Z,24.55
2022-08-28T10:13:39.493Z,24.57
2022-08-28T10:14:39.499Z,24.81
2022-08-28T10:15:43.107Z,24.86
2022-08-28T10:16:39.474Z,24.55
2022-08-28T10:17:39.477Z,24.30
2022-08-28T10:18:39.487Z,24.36
2022-08-28T10:19:39.460Z,24.54
2022-08-28T10:20:39.462Z,24.85
2022-08-28T10:21:39.472Z,24.98
2022-08-28T10:22:39.485Z,25.13
2022-08-28T10:23:39.447Z,25.17
2022-08-28T10:24:39.419Z,25.21
2022-08-28T10:25:40.084Z,25.06
2022-08-28T10:26:39.440Z,25.23
2022-08-28T10:27:39.400Z,25.29
2022-08-28T10:28:39.394Z,25.25
2022-08-28T10:29:39.386Z,25.08
2022-08-28T10:30:39.422Z,24.89
2022-08-28T10:31:39.400Z,24.76
2022-08-28T10:32:39.430Z,24.77
2022-08-28T10:33:39.361Z,24.84
2022-08-28T10:34:39.357Z,24.77
2022-08-28T10:35:39.355Z,24.69
2022-08-28T10:36:39.347Z,24.76
2022-08-28T10:37:39.420Z,24.78
2022-08-28T10:38:39.349Z,24.60
2022-08-28T10:39:39.321Z,24.50
2022-08-28T10:40:39.371Z,24.48
2022-08-28T10:41:39.305Z,24.73
2022-08-28T10:42:39.380Z,24.70
2022-08-28T10:43:39.317Z,24.77
2022-08-28T10:44:39.291Z,24.78
2022-08-28T10:45:39.299Z,24.70
2022-08-28T10:46:39.328Z,24.40
2022-08-28T10:47:39.269Z,24.05
2022-08-28T10:48:39.277Z,24.03
2022-08-28T10:49:39.284Z,24.24
2022-08-28T10:50:39.250Z,24.54
2022-08-28T10:51:43.580Z,24.86
2022-08-28T10:52:39.241Z,25.01
2022-08-28T10:53:39.254Z,25.06
2022-08-28T10:54:39.215Z,25.16
2022-08-28T10:55:39.222Z,25.18
2022-08-28T10:56:39.230Z,25.21
2022-08-28T10:57:40.070Z,25.21
2022-08-28T10:58:39.194Z,25.32
2022-08-28T10:59:42.065Z,25.26
2022-08-28T11:00:39.190Z,25.38
2022-08-28T11:01:39.258Z,25.46
2022-08-28T11:02:39.328Z,25.43
2022-08-28T11:03:39.161Z,25.44
2022-08-28T11:04:39.162Z,25.51
2022-08-28T11:05:39.150Z,25.29
2022-08-28T11:06:39.157Z,25.33
2022-08-28T11:07:39.147Z,25.31
2022-08-28T11:08:39.140Z,25.07
2022-08-28T11:09:39.120Z,25.10
2022-08-28T11:10:39.117Z,25.04
2022-08-28T11:11:39.108Z,24.89
2022-08-28T11:12:39.122Z,24.95
2022-08-28T11:13:39.114Z,24.89
2022-08-28T11:14:42.790Z,24.85
2022-08-28T11:15:40.085Z,24.70
2022-08-28T11:16:40.374Z,24.76
2022-08-28T11:17:39.093Z,24.86
2022-08-28T11:18:39.071Z,24.99
2022-08-28T11:19:43.856Z,24.77
2022-08-28T11:20:40.067Z,24.73
2022-08-28T11:21:39.038Z,24.78
2022-08-28T11:22:39.036Z,24.66
2022-08-28T11:23:39.060Z,24.53
2022-08-28T11:24:39.017Z,24.40
2022-08-28T11:25:39.017Z,24.43
2022-08-28T11:26:39.051Z,24.54
2022-08-28T11:27:39.013Z,24.69
2022-08-28T11:28:38.994Z,24.78
2022-08-28T11:29:39.020Z,24.66
2022-08-28T11:30:39.063Z,24.68
2022-08-28T11:31:39.020Z,24.74
2022-08-28T11:32:38.971Z,24.78
2022-08-28T11:33:39.966Z,24.92
2022-08-28T11:34:38.980Z,25.18
2022-08-28T11:35:38.941Z,25.29
2022-08-28T11:36:38.985Z,25.32
2022-08-28T11:37:38.957Z,25.32
2022-08-28T11:38:38.958Z,25.40
2022-08-28T11:39:38.938Z,25.32
2022-08-28T11:40:39.056Z,25.40
2022-08-28T11:41:38.933Z,25.62
2022-08-28T11:42:38.901Z,25.75
2022-08-28T11:43:38.889Z,25.75
2022-08-28T11:44:38.879Z,25.77
2022-08-28T11:45:38.964Z,25.75
2022-08-28T11:46:38.938Z,25.66
2022-08-28T11:47:38.872Z,25.83
2022-08-28T11:48:38.871Z,25.83
2022-08-28T11:49:38.852Z,25.83
2022-08-28T11:50:38.876Z,25.93
2022-08-28T11:51:38.838Z,25.87
2022-08-28T11:52:38.876Z,25.83
2022-08-28T11:53:38.831Z,25.70
2022-08-28T11:54:38.842Z,25.83
2022-08-28T11:55:38.821Z,25.83
2022-08-28T11:56:38.818Z,25.95
2022-08-28T11:57:38.822Z,25.78
2022-08-28T11:58:38.800Z,25.77
2022-08-28T11:59:38.779Z,25.80
2022-08-28T12:00:38.785Z,25.78
2022-08-28T12:01:38.792Z,25.77
2022-08-28T12:02:38.822Z,25.70
2022-08-28T12:03:38.774Z,25.46
2022-08-28T12:04:38.821Z,25.38
2022-08-28T12:05:38.750Z,25.48
2022-08-28T12:06:38.762Z,25.59
2022-08-28T12:07:38.730Z,25.65
2022-08-28T12:08:38.743Z,25.72
2022-08-28T12:09:38.718Z,25.78
2022-08-28T12:10:38.717Z,25.90
2022-08-28T12:11:38.710Z,25.72
2022-08-28T12:12:38.705Z,25.72
2022-08-28T12:13:38.691Z,25.70
2022-08-28T12:14:38.726Z,25.50
2022-08-28T12:15:38.711Z,25.43
2022-08-28T12:16:38.681Z,25.43
2022-08-28T12:17:38.669Z,25.18
2022-08-28T12:18:38.681Z,24.69
2022-08-28T12:19:41.146Z,24.66
2022-08-28T12:20:38.656Z,24.65
2022-08-28T12:21:38.665Z,24.57
2022-08-28T12:22:38.632Z,24.69
2022-08-28T12:23:38.647Z,24.96
2022-08-28T12:24:38.612Z,25.06
2022-08-28T12:25:38.621Z,25.14
2022-08-28T12:26:38.627Z,24.78
2022-08-28T12:27:38.596Z,24.70
2022-08-28T12:28:38.587Z,24.42
2022-08-28T12:29:38.582Z,24.58
2022-08-28T12:30:38.631Z,24.63
2022-08-28T12:31:38.555Z,24.76
2022-08-28T12:32:38.577Z,25.07
2022-08-28T12:33:38.549Z,25.10
2022-08-28T12:34:38.541Z,25.23
2022-08-28T12:35:38.529Z,25.35
2022-08-28T12:36:38.533Z,25.18
2022-08-28T12:37:50.806Z,25.22
2022-08-28T12:38:39.526Z,25.29
2022-08-28T12:39:38.495Z,25.23
2022-08-28T12:40:38.579Z,25.31
2022-08-28T12:41:38.479Z,25.18
2022-08-28T12:42:38.510Z,25.26
2022-08-28T12:43:41.698Z,25.53
2022-08-28T12:44:38.466Z,25.46
2022-08-28T12:45:38.503Z,25.59
2022-08-28T12:46:38.531Z,25.38
2022-08-28T12:47:38.444Z,25.13
2022-08-28T12:48:38.457Z,25.03
2022-08-28T12:49:38.427Z,25.01
2022-08-28T12:50:38.428Z,24.93
2022-08-28T12:51:38.420Z,24.91
2022-08-28T12:52:38.418Z,24.84